sensor_id;sensor_type;location;lat;lon;timestamp;temperature;humidity
30290;DHT22;17105;55.652;37.710;2022-07-04T00:00:31;23.00;63.30
30290;DHT22;17105;55.652;37.710;2022-07-04T00:01:05;23.00;63.30
30290;DHT22;17105;55.652;37.710;2022-07-04T00:01:41;23.00;63.40
30290;DHT22;17105;55.652;37.710;2022-07-04T00:02:15;23.00;63.40
30290;DHT22;17105;55.652;37.710;2022-07-04T00:02:51;23.00;63.50
30290;DHT22;17105;55.652;37.710;2022-07-04T00:03:26;23.00;63.60
30290;DHT22;17105;55.652;37.710;2022-07-04T00:03:59;23.00;63.40
30290;DHT22;17105;55.652;37.710;2022-07-04T00:04:34;23.00;63.30
30290;DHT22;17105;55.652;37.710;2022-07-04T00:05:09;23.00;63.20
30290;DHT22;17105;55.652;37.710;2022-07-04T00:05:44;23.00;63.30
30290;DHT22;17105;55.652;37.710;2022-07-04T00:06:19;23.00;63.30
30290;DHT22;17105;55.652;37.710;2022-07-04T00:06:54;23.00;63.20
30290;DHT22;17105;55.652;37.710;2022-07-04T00:07:30;23.00;63.10
30290;DHT22;17105;55.652;37.710;2022-07-04T00:08:04;23.00;63.00
30290;DHT22;17105;55.652;37.710;2022-07-04T00:08:39;23.00;63.10
30290;DHT22;17105;55.652;37.710;2022-07-04T00:09:14;23.00;63.30
30290;DHT22;17105;55.652;37.710;2022-07-04T00:09:48;23.00;63.50
30290;DHT22;17105;55.652;37.710;2022-07-04T00:10:24;23.00;63.60
30290;DHT22;17105;55.652;37.710;2022-07-04T00:10:59;23.00;63.50
30290;DHT22;17105;55.652;37.710;2022-07-04T00:11:33;22.90;63.40
30290;DHT22;17105;55.652;37.710;2022-07-04T00:12:08;23.00;63.30
30290;DHT22;17105;55.652;37.710;2022-07-04T00:12:43;22.90;63.30
30290;DHT22;17105;55.652;37.710;2022-07-04T00:13:17;22.90;63.30
30290;DHT22;17105;55.652;37.710;2022-07-04T00:13:51;22.90;63.40
30290;DHT22;17105;55.652;37.710;2022-07-04T00:14:27;22.90;63.30
30290;DHT22;17105;55.652;37.710;2022-07-04T00:15:02;22.90;63.40
30290;DHT22;17105;55.652;37.710;2022-07-04T00:15:37;22.90;63.50
30290;DHT22;17105;55.652;37.710;2022-07-04T00:16:12;22.90;63.60
30290;DHT22;17105;55.652;37.710;2022-07-04T00:16:45;22.90;63.90
30290;DHT22;17105;55.652;37.710;2022-07-04T00:17:20;22.90;64.00
30290;DHT22;17105;55.652;37.710;2022-07-04T00:17:55;22.90;64.00
30290;DHT22;17105;55.652;37.710;2022-07-04T00:18:29;22.90;64.10
30290;DHT22;17105;55.652;37.710;2022-07-04T00:19:04;22.90;64.10
30290;DHT22;17105;55.652;37.710;2022-07-04T00:19:39;22.90;64.10
30290;DHT22;17105;55.652;37.710;2022-07-04T00:20:13;22.90;64.00
30290;DHT22;17105;55.652;37.710;2022-07-04T00:20:48;22.80;64.00
30290;DHT22;17105;55.652;37.710;2022-07-04T00:21:22;22.80;64.10
30290;DHT22;17105;55.652;37.710;2022-07-04T00:21:57;22.80;64.00
30290;DHT22;17105;55.652;37.710;2022-07-04T00:22:30;22.80;63.90
30290;DHT22;17105;55.652;37.710;2022-07-04T00:23:05;22.80;63.90
30290;DHT22;17105;55.652;37.710;2022-07-04T00:23:40;22.80;63.80
30290;DHT22;17105;55.652;37.710;2022-07-04T00:24:14;22.80;63.60
30290;DHT22;17105;55.652;37.710;2022-07-04T00:24:49;22.80;63.60
30290;DHT22;17105;55.652;37.710;2022-07-04T00:25:26;22.80;63.60
30290;DHT22;17105;55.652;37.710;2022-07-04T00:26:00;22.80;63.60
30290;DHT22;17105;55.652;37.710;2022-07-04T00:26:35;22.80;63.70
30290;DHT22;17105;55.652;37.710;2022-07-04T00:27:10;22.80;63.60
30290;DHT22;17105;55.652;37.710;2022-07-04T00:27:44;22.80;63.50
30290;DHT22;17105;55.652;37.710;2022-07-04T00:28:18;22.80;63.50
30290;DHT22;17105;55.652;37.710;2022-07-04T00:28:52;22.80;63.50
30290;DHT22;17105;55.652;37.710;2022-07-04T00:29:28;22.80;63.50
30290;DHT22;17105;55.652;37.710;2022-07-04T00:30:04;22.70;63.50
30290;DHT22;17105;55.652;37.710;2022-07-04T00:30:39;22.70;63.20
30290;DHT22;17105;55.652;37.710;2022-07-04T00:31:14;22.70;63.20
30290;DHT22;17105;55.652;37.710;2022-07-04T00:31:48;22.70;63.30
30290;DHT22;17105;55.652;37.710;2022-07-04T00:32:23;22.70;63.50
30290;DHT22;17105;55.652;37.710;2022-07-04T00:32:57;22.70;63.70
30290;DHT22;17105;55.652;37.710;2022-07-04T00:33:31;22.70;64.00
30290;DHT22;17105;55.652;37.710;2022-07-04T00:34:06;22.70;64.00
30290;DHT22;17105;55.652;37.710;2022-07-04T00:34:39;22.70;63.90
30290;DHT22;17105;55.652;37.710;2022-07-04T00:35:14;22.70;63.80
30290;DHT22;17105;55.652;37.710;2022-07-04T00:35:49;22.70;63.50
30290;DHT22;17105;55.652;37.710;2022-07-04T00:36:24;22.70;63.30
30290;DHT22;17105;55.652;37.710;2022-07-04T00:36:59;22.70;63.20
30290;DHT22;17105;55.652;37.710;2022-07-04T00:37:33;22.60;63.30
30290;DHT22;17105;55.652;37.710;2022-07-04T00:38:07;22.70;63.40
30290;DHT22;17105;55.652;37.710;2022-07-04T00:38:42;22.70;63.40
30290;DHT22;17105;55.652;37.710;2022-07-04T00:39:16;22.60;63.40
30290;DHT22;17105;55.652;37.710;2022-07-04T00:39:49;22.60;63.40
30290;DHT22;17105;55.652;37.710;2022-07-04T00:40:26;22.70;63.60
30290;DHT22;17105;55.652;37.710;2022-07-04T00:41:00;22.60;63.60
30290;DHT22;17105;55.652;37.710;2022-07-04T00:41:34;22.60;63.70
30290;DHT22;17105;55.652;37.710;2022-07-04T00:42:08;22.60;63.80
30290;DHT22;17105;55.652;37.710;2022-07-04T00:42:42;22.60;63.70
30290;DHT22;17105;55.652;37.710;2022-07-04T00:43:21;22.60;63.80
30290;DHT22;17105;55.652;37.710;2022-07-04T00:44:01;22.60;63.80
30290;DHT22;17105;55.652;37.710;2022-07-04T00:44:45;22.60;63.90
30290;DHT22;17105;55.652;37.710;2022-07-04T00:45:20;22.60;63.90
30290;DHT22;17105;55.652;37.710;2022-07-04T00:45:54;22.60;63.90
30290;DHT22;17105;55.652;37.710;2022-07-04T00:46:28;22.60;63.80
30290;DHT22;17105;55.652;37.710;2022-07-04T00:47:07;22.60;64.30
30290;DHT22;17105;55.652;37.710;2022-07-04T00:47:41;22.60;63.80
30290;DHT22;17105;55.652;37.710;2022-07-04T00:48:16;22.60;63.70
30290;DHT22;17105;55.652;37.710;2022-07-04T00:48:52;22.60;64.20
30290;DHT22;17105;55.652;37.710;2022-07-04T00:49:26;22.50;63.60
30290;DHT22;17105;55.652;37.710;2022-07-04T00:49:59;22.60;63.80
30290;DHT22;17105;55.652;37.710;2022-07-04T00:50:35;22.60;63.80
30290;DHT22;17105;55.652;37.710;2022-07-04T00:51:10;22.50;63.80
30290;DHT22;17105;55.652;37.710;2022-07-04T00:51:46;22.60;64.00
30290;DHT22;17105;55.652;37.710;2022-07-04T00:52:20;22.50;63.90
30290;DHT22;17105;55.652;37.710;2022-07-04T00:52:54;22.50;63.90
30290;DHT22;17105;55.652;37.710;2022-07-04T00:53:30;22.50;63.90
30290;DHT22;17105;55.652;37.710;2022-07-04T00:54:06;22.50;63.90
30290;DHT22;17105;55.652;37.710;2022-07-04T00:54:41;22.50;63.90
30290;DHT22;17105;55.652;37.710;2022-07-04T00:55:16;22.50;63.80
30290;DHT22;17105;55.652;37.710;2022-07-04T00:55:53;22.50;63.80
30290;DHT22;17105;55.652;37.710;2022-07-04T00:56:27;22.50;64.00
30290;DHT22;17105;55.652;37.710;2022-07-04T00:57:02;22.50;64.10
30290;DHT22;17105;55.652;37.710;2022-07-04T00:57:38;22.40;64.20
30290;DHT22;17105;55.652;37.710;2022-07-04T00:58:13;22.40;64.00
30290;DHT22;17105;55.652;37.710;2022-07-04T00:58:46;22.40;64.00
30290;DHT22;17105;55.652;37.710;2022-07-04T00:59:21;22.40;63.90
30290;DHT22;17105;55.652;37.710;2022-07-04T00:59:55;22.40;64.00
30290;DHT22;17105;55.652;37.710;2022-07-04T01:00:29;22.40;64.00
30290;DHT22;17105;55.652;37.710;2022-07-04T01:01:05;22.40;63.90
30290;DHT22;17105;55.652;37.710;2022-07-04T01:01:40;22.40;63.90
30290;DHT22;17105;55.652;37.710;2022-07-04T01:02:13;22.40;64.10
30290;DHT22;17105;55.652;37.710;2022-07-04T01:02:48;22.40;64.30
30290;DHT22;17105;55.652;37.710;2022-07-04T01:03:23;22.40;64.50
30290;DHT22;17105;55.652;37.710;2022-07-04T01:03:57;22.40;64.60
30290;DHT22;17105;55.652;37.710;2022-07-04T01:04:33;22.40;64.70
30290;DHT22;17105;55.652;37.710;2022-07-04T01:05:08;22.40;64.90
30290;DHT22;17105;55.652;37.710;2022-07-04T01:05:42;22.40;65.00
30290;DHT22;17105;55.652;37.710;2022-07-04T01:06:19;22.40;65.10
30290;DHT22;17105;55.652;37.710;2022-07-04T01:06:54;22.40;65.30
30290;DHT22;17105;55.652;37.710;2022-07-04T01:07:28;22.40;65.30
30290;DHT22;17105;55.652;37.710;2022-07-04T01:08:04;22.40;65.00
30290;DHT22;17105;55.652;37.710;2022-07-04T01:08:40;22.30;64.70
30290;DHT22;17105;55.652;37.710;2022-07-04T01:09:15;22.30;64.60
30290;DHT22;17105;55.652;37.710;2022-07-04T01:09:51;22.30;64.70
30290;DHT22;17105;55.652;37.710;2022-07-04T01:10:26;22.30;64.60
30290;DHT22;17105;55.652;37.710;2022-07-04T01:11:02;22.30;64.70
30290;DHT22;17105;55.652;37.710;2022-07-04T01:11:37;22.30;64.40
30290;DHT22;17105;55.652;37.710;2022-07-04T01:12:25;22.40;64.30
30290;DHT22;17105;55.652;37.710;2022-07-04T01:13:01;22.30;64.50
30290;DHT22;17105;55.652;37.710;2022-07-04T01:13:35;22.30;64.40
30290;DHT22;17105;55.652;37.710;2022-07-04T01:14:10;22.30;64.50
30290;DHT22;17105;55.652;37.710;2022-07-04T01:14:44;22.30;64.50
30290;DHT22;17105;55.652;37.710;2022-07-04T01:15:20;22.30;64.60
30290;DHT22;17105;55.652;37.710;2022-07-04T01:15:53;22.30;64.60
30290;DHT22;17105;55.652;37.710;2022-07-04T01:16:29;22.30;64.40
30290;DHT22;17105;55.652;37.710;2022-07-04T01:17:03;22.30;64.40
30290;DHT22;17105;55.652;37.710;2022-07-04T01:17:37;22.30;65.00
30290;DHT22;17105;55.652;37.710;2022-07-04T01:18:12;22.30;64.50
30290;DHT22;17105;55.652;37.710;2022-07-04T01:18:46;22.30;64.60
30290;DHT22;17105;55.652;37.710;2022-07-04T01:19:21;22.30;64.70
30290;DHT22;17105;55.652;37.710;2022-07-04T01:19:57;22.30;64.80
30290;DHT22;17105;55.652;37.710;2022-07-04T01:20:35;22.30;64.80
30290;DHT22;17105;55.652;37.710;2022-07-04T01:21:09;22.30;64.80
30290;DHT22;17105;55.652;37.710;2022-07-04T01:21:44;22.30;64.70
30290;DHT22;17105;55.652;37.710;2022-07-04T01:22:18;22.30;64.80
30290;DHT22;17105;55.652;37.710;2022-07-04T01:22:54;22.30;64.90
30290;DHT22;17105;55.652;37.710;2022-07-04T01:23:29;22.30;64.90
30290;DHT22;17105;55.652;37.710;2022-07-04T01:24:05;22.30;64.90
30290;DHT22;17105;55.652;37.710;2022-07-04T01:24:38;22.30;64.80
30290;DHT22;17105;55.652;37.710;2022-07-04T01:25:13;22.30;64.90
30290;DHT22;17105;55.652;37.710;2022-07-04T01:25:48;22.30;64.90
30290;DHT22;17105;55.652;37.710;2022-07-04T01:26:22;22.30;64.90
30290;DHT22;17105;55.652;37.710;2022-07-04T01:26:57;22.30;65.10
30290;DHT22;17105;55.652;37.710;2022-07-04T01:27:30;22.30;65.30
30290;DHT22;17105;55.652;37.710;2022-07-04T01:28:05;22.30;65.60
30290;DHT22;17105;55.652;37.710;2022-07-04T01:28:40;22.30;65.60
30290;DHT22;17105;55.652;37.710;2022-07-04T01:29:14;22.20;65.50
30290;DHT22;17105;55.652;37.710;2022-07-04T01:29:52;22.30;65.50
30290;DHT22;17105;55.652;37.710;2022-07-04T01:30:26;22.30;65.50
30290;DHT22;17105;55.652;37.710;2022-07-04T01:31:00;22.20;65.50
30290;DHT22;17105;55.652;37.710;2022-07-04T01:31:36;22.20;65.70
30290;DHT22;17105;55.652;37.710;2022-07-04T01:32:12;22.20;65.80
30290;DHT22;17105;55.652;37.710;2022-07-04T01:32:46;22.30;65.90
30290;DHT22;17105;55.652;37.710;2022-07-04T01:33:22;22.20;65.90
30290;DHT22;17105;55.652;37.710;2022-07-04T01:33:57;22.20;66.00
30290;DHT22;17105;55.652;37.710;2022-07-04T01:34:31;22.30;66.00
30290;DHT22;17105;55.652;37.710;2022-07-04T01:35:09;22.20;66.00
30290;DHT22;17105;55.652;37.710;2022-07-04T01:35:43;22.30;66.10
30290;DHT22;17105;55.652;37.710;2022-07-04T01:36:17;22.20;66.10
30290;DHT22;17105;55.652;37.710;2022-07-04T01:36:50;22.20;66.10
30290;DHT22;17105;55.652;37.710;2022-07-04T01:37:26;22.20;66.10
30290;DHT22;17105;55.652;37.710;2022-07-04T01:38:01;22.20;66.20
30290;DHT22;17105;55.652;37.710;2022-07-04T01:38:36;22.20;66.20
30290;DHT22;17105;55.652;37.710;2022-07-04T01:39:09;22.20;66.20
30290;DHT22;17105;55.652;37.710;2022-07-04T01:39:43;22.20;66.30
30290;DHT22;17105;55.652;37.710;2022-07-04T01:40:17;22.20;66.30
30290;DHT22;17105;55.652;37.710;2022-07-04T01:40:52;22.20;66.40
30290;DHT22;17105;55.652;37.710;2022-07-04T01:41:26;22.20;66.50
30290;DHT22;17105;55.652;37.710;2022-07-04T01:42:03;22.30;66.60
30290;DHT22;17105;55.652;37.710;2022-07-04T01:42:38;22.30;66.70
30290;DHT22;17105;55.652;37.710;2022-07-04T01:43:12;22.20;66.70
30290;DHT22;17105;55.652;37.710;2022-07-04T01:43:47;22.20;66.70
30290;DHT22;17105;55.652;37.710;2022-07-04T01:44:22;22.30;66.70
30290;DHT22;17105;55.652;37.710;2022-07-04T01:44:56;22.30;66.80
30290;DHT22;17105;55.652;37.710;2022-07-04T01:45:31;22.30;66.80
30290;DHT22;17105;55.652;37.710;2022-07-04T01:46:09;22.20;66.70
30290;DHT22;17105;55.652;37.710;2022-07-04T01:46:43;22.30;66.70
30290;DHT22;17105;55.652;37.710;2022-07-04T01:47:18;22.30;66.80
30290;DHT22;17105;55.652;37.710;2022-07-04T01:47:54;22.30;66.80
30290;DHT22;17105;55.652;37.710;2022-07-04T01:48:28;22.30;66.90
30290;DHT22;17105;55.652;37.710;2022-07-04T01:49:02;22.30;67.10
30290;DHT22;17105;55.652;37.710;2022-07-04T01:49:37;22.30;67.10
30290;DHT22;17105;55.652;37.710;2022-07-04T01:50:12;22.30;67.10
30290;DHT22;17105;55.652;37.710;2022-07-04T01:50:47;22.30;67.00
30290;DHT22;17105;55.652;37.710;2022-07-04T01:51:22;22.30;67.30
30290;DHT22;17105;55.652;37.710;2022-07-04T01:51:58;22.30;67.20
30290;DHT22;17105;55.652;37.710;2022-07-04T01:52:33;22.30;67.10
30290;DHT22;17105;55.652;37.710;2022-07-04T01:53:07;22.30;67.00
30290;DHT22;17105;55.652;37.710;2022-07-04T01:53:41;22.30;66.90
30290;DHT22;17105;55.652;37.710;2022-07-04T01:54:17;22.30;66.70
30290;DHT22;17105;55.652;37.710;2022-07-04T01:54:52;22.30;66.60
30290;DHT22;17105;55.652;37.710;2022-07-04T01:55:26;22.30;66.60
30290;DHT22;17105;55.652;37.710;2022-07-04T01:56:01;22.30;66.50
30290;DHT22;17105;55.652;37.710;2022-07-04T01:56:35;22.30;66.20
30290;DHT22;17105;55.652;37.710;2022-07-04T01:57:09;22.30;66.10
30290;DHT22;17105;55.652;37.710;2022-07-04T01:57:46;22.30;65.90
30290;DHT22;17105;55.652;37.710;2022-07-04T01:58:20;22.30;65.80
30290;DHT22;17105;55.652;37.710;2022-07-04T01:58:54;22.30;65.70
30290;DHT22;17105;55.652;37.710;2022-07-04T01:59:30;22.30;65.70
30290;DHT22;17105;55.652;37.710;2022-07-04T02:00:24;22.30;65.70
30290;DHT22;17105;55.652;37.710;2022-07-04T02:01:16;22.30;65.60
30290;DHT22;17105;55.652;37.710;2022-07-04T02:02:10;22.30;65.60
30290;DHT22;17105;55.652;37.710;2022-07-04T02:02:48;22.40;65.60
30290;DHT22;17105;55.652;37.710;2022-07-04T02:03:23;22.40;65.60
30290;DHT22;17105;55.652;37.710;2022-07-04T02:03:58;22.40;65.60
30290;DHT22;17105;55.652;37.710;2022-07-04T02:04:33;22.40;65.60
30290;DHT22;17105;55.652;37.710;2022-07-04T02:05:09;22.40;65.60
30290;DHT22;17105;55.652;37.710;2022-07-04T02:05:44;22.40;65.80
30290;DHT22;17105;55.652;37.710;2022-07-04T02:06:19;22.40;66.00
30290;DHT22;17105;55.652;37.710;2022-07-04T02:06:54;22.40;66.10
30290;DHT22;17105;55.652;37.710;2022-07-04T02:07:28;22.40;66.10
30290;DHT22;17105;55.652;37.710;2022-07-04T02:08:03;22.40;66.10
30290;DHT22;17105;55.652;37.710;2022-07-04T02:08:39;22.40;66.70
30290;DHT22;17105;55.652;37.710;2022-07-04T02:09:30;22.40;66.20
30290;DHT22;17105;55.652;37.710;2022-07-04T02:10:06;22.50;66.40
30290;DHT22;17105;55.652;37.710;2022-07-04T02:10:40;22.40;66.50
30290;DHT22;17105;55.652;37.710;2022-07-04T02:11:14;22.50;66.70
30290;DHT22;17105;55.652;37.710;2022-07-04T02:11:49;22.50;66.80
30290;DHT22;17105;55.652;37.710;2022-07-04T02:12:50;22.50;66.70
30290;DHT22;17105;55.652;37.710;2022-07-04T02:13:37;22.50;66.60
30290;DHT22;17105;55.652;37.710;2022-07-04T02:14:31;22.50;66.50
30290;DHT22;17105;55.652;37.710;2022-07-04T02:15:09;22.50;66.20
30290;DHT22;17105;55.652;37.710;2022-07-04T02:15:43;22.50;66.10
30290;DHT22;17105;55.652;37.710;2022-07-04T02:16:18;22.50;66.10
30290;DHT22;17105;55.652;37.710;2022-07-04T02:16:52;22.50;66.00
30290;DHT22;17105;55.652;37.710;2022-07-04T02:17:27;22.50;66.40
30290;DHT22;17105;55.652;37.710;2022-07-04T02:18:01;22.60;66.00
30290;DHT22;17105;55.652;37.710;2022-07-04T02:18:37;22.60;66.00
30290;DHT22;17105;55.652;37.710;2022-07-04T02:19:10;22.60;65.80
30290;DHT22;17105;55.652;37.710;2022-07-04T02:19:44;22.60;65.70
30290;DHT22;17105;55.652;37.710;2022-07-04T02:20:19;22.60;65.60
30290;DHT22;17105;55.652;37.710;2022-07-04T02:20:53;22.60;65.60
30290;DHT22;17105;55.652;37.710;2022-07-04T02:21:30;22.60;65.50
30290;DHT22;17105;55.652;37.710;2022-07-04T02:22:05;22.60;65.40
30290;DHT22;17105;55.652;37.710;2022-07-04T02:22:39;22.60;65.20
30290;DHT22;17105;55.652;37.710;2022-07-04T02:23:14;22.60;65.60
30290;DHT22;17105;55.652;37.710;2022-07-04T02:23:48;22.60;64.70
30290;DHT22;17105;55.652;37.710;2022-07-04T02:24:22;22.70;64.50
30290;DHT22;17105;55.652;37.710;2022-07-04T02:24:57;22.70;64.30
30290;DHT22;17105;55.652;37.710;2022-07-04T02:25:31;22.70;64.10
30290;DHT22;17105;55.652;37.710;2022-07-04T02:26:05;22.70;63.90
30290;DHT22;17105;55.652;37.710;2022-07-04T02:26:41;22.70;63.60
30290;DHT22;17105;55.652;37.710;2022-07-04T02:27:15;22.70;63.20
30290;DHT22;17105;55.652;37.710;2022-07-04T02:27:49;22.80;63.40
30290;DHT22;17105;55.652;37.710;2022-07-04T02:28:23;22.80;64.00
30290;DHT22;17105;55.652;37.710;2022-07-04T02:28:57;22.80;64.50
30290;DHT22;17105;55.652;37.710;2022-07-04T02:29:32;22.90;64.80
30290;DHT22;17105;55.652;37.710;2022-07-04T02:30:07;22.80;64.70
30290;DHT22;17105;55.652;37.710;2022-07-04T02:30:42;22.90;64.40
30290;DHT22;17105;55.652;37.710;2022-07-04T02:31:17;22.90;64.50
30290;DHT22;17105;55.652;37.710;2022-07-04T02:31:51;22.90;64.70
30290;DHT22;17105;55.652;37.710;2022-07-04T02:32:28;23.00;64.70
30290;DHT22;17105;55.652;37.710;2022-07-04T02:33:02;23.00;64.50
30290;DHT22;17105;55.652;37.710;2022-07-04T02:33:36;23.00;64.40
30290;DHT22;17105;55.652;37.710;2022-07-04T02:34:10;23.00;64.50
30290;DHT22;17105;55.652;37.710;2022-07-04T02:34:45;23.00;64.50
30290;DHT22;17105;55.652;37.710;2022-07-04T02:35:21;23.10;64.10
30290;DHT22;17105;55.652;37.710;2022-07-04T02:35:54;23.10;63.40
30290;DHT22;17105;55.652;37.710;2022-07-04T02:36:30;23.10;62.80
30290;DHT22;17105;55.652;37.710;2022-07-04T02:37:05;23.10;62.10
30290;DHT22;17105;55.652;37.710;2022-07-04T02:37:40;23.10;61.80
30290;DHT22;17105;55.652;37.710;2022-07-04T02:38:15;23.10;61.80
30290;DHT22;17105;55.652;37.710;2022-07-04T02:38:49;23.10;61.80
30290;DHT22;17105;55.652;37.710;2022-07-04T02:39:24;23.20;62.20
30290;DHT22;17105;55.652;37.710;2022-07-04T02:39:58;23.20;61.50
30290;DHT22;17105;55.652;37.710;2022-07-04T02:40:42;23.20;61.40
30290;DHT22;17105;55.652;37.710;2022-07-04T02:41:17;23.20;61.30
30290;DHT22;17105;55.652;37.710;2022-07-04T02:41:51;23.30;61.60
30290;DHT22;17105;55.652;37.710;2022-07-04T02:42:29;23.30;61.70
30290;DHT22;17105;55.652;37.710;2022-07-04T02:43:03;23.30;61.40
30290;DHT22;17105;55.652;37.710;2022-07-04T02:43:38;23.30;61.20
30290;DHT22;17105;55.652;37.710;2022-07-04T02:44:12;23.40;60.90
30290;DHT22;17105;55.652;37.710;2022-07-04T02:44:46;23.40;60.30
30290;DHT22;17105;55.652;37.710;2022-07-04T02:45:22;23.40;60.10
30290;DHT22;17105;55.652;37.710;2022-07-04T02:45:57;23.40;60.20
30290;DHT22;17105;55.652;37.710;2022-07-04T02:46:31;23.50;60.30
30290;DHT22;17105;55.652;37.710;2022-07-04T02:47:06;23.50;60.20
30290;DHT22;17105;55.652;37.710;2022-07-04T02:47:41;23.50;60.40
30290;DHT22;17105;55.652;37.710;2022-07-04T02:48:15;23.50;60.70
30290;DHT22;17105;55.652;37.710;2022-07-04T02:48:48;23.50;61.00
30290;DHT22;17105;55.652;37.710;2022-07-04T02:49:22;23.50;61.00
30290;DHT22;17105;55.652;37.710;2022-07-04T02:49:57;23.50;61.00
30290;DHT22;17105;55.652;37.710;2022-07-04T02:50:36;23.60;60.90
30290;DHT22;17105;55.652;37.710;2022-07-04T02:51:10;23.60;60.80
30290;DHT22;17105;55.652;37.710;2022-07-04T02:51:46;23.60;60.70
30290;DHT22;17105;55.652;37.710;2022-07-04T02:52:22;23.60;60.60
30290;DHT22;17105;55.652;37.710;2022-07-04T02:52:58;23.60;60.40
30290;DHT22;17105;55.652;37.710;2022-07-04T02:53:33;23.60;60.40
30290;DHT22;17105;55.652;37.710;2022-07-04T02:54:07;23.70;60.60
30290;DHT22;17105;55.652;37.710;2022-07-04T02:54:41;23.70;60.70
30290;DHT22;17105;55.652;37.710;2022-07-04T02:55:17;23.70;60.70
30290;DHT22;17105;55.652;37.710;2022-07-04T02:55:53;23.70;60.70
30290;DHT22;17105;55.652;37.710;2022-07-04T02:56:27;23.70;60.70
30290;DHT22;17105;55.652;37.710;2022-07-04T02:57:02;23.70;60.70
30290;DHT22;17105;55.652;37.710;2022-07-04T02:57:38;23.80;60.80
30290;DHT22;17105;55.652;37.710;2022-07-04T02:58:12;23.80;60.70
30290;DHT22;17105;55.652;37.710;2022-07-04T02:58:47;23.80;60.50
30290;DHT22;17105;55.652;37.710;2022-07-04T02:59:25;23.80;60.40
30290;DHT22;17105;55.652;37.710;2022-07-04T02:59:58;23.90;60.50
30290;DHT22;17105;55.652;37.710;2022-07-04T03:00:34;23.90;60.50
30290;DHT22;17105;55.652;37.710;2022-07-04T03:01:07;23.90;60.40
30290;DHT22;17105;55.652;37.710;2022-07-04T03:01:41;23.90;60.30
30290;DHT22;17105;55.652;37.710;2022-07-04T03:02:16;23.90;60.30
30290;DHT22;17105;55.652;37.710;2022-07-04T03:02:50;23.90;60.10
30290;DHT22;17105;55.652;37.710;2022-07-04T03:03:24;24.00;60.20
30290;DHT22;17105;55.652;37.710;2022-07-04T03:03:59;24.00;60.00
30290;DHT22;17105;55.652;37.710;2022-07-04T03:04:33;24.00;60.00
30290;DHT22;17105;55.652;37.710;2022-07-04T03:05:09;24.00;60.00
30290;DHT22;17105;55.652;37.710;2022-07-04T03:05:46;24.00;59.90
30290;DHT22;17105;55.652;37.710;2022-07-04T03:06:20;24.00;59.60
30290;DHT22;17105;55.652;37.710;2022-07-04T03:06:56;24.00;59.50
30290;DHT22;17105;55.652;37.710;2022-07-04T03:07:31;24.10;59.60
30290;DHT22;17105;55.652;37.710;2022-07-04T03:08:05;24.10;59.60
30290;DHT22;17105;55.652;37.710;2022-07-04T03:08:39;24.10;59.20
30290;DHT22;17105;55.652;37.710;2022-07-04T03:09:14;24.20;59.10
30290;DHT22;17105;55.652;37.710;2022-07-04T03:09:47;24.20;59.20
30290;DHT22;17105;55.652;37.710;2022-07-04T03:10:22;24.20;59.00
30290;DHT22;17105;55.652;37.710;2022-07-04T03:10:56;24.20;58.60
30290;DHT22;17105;55.652;37.710;2022-07-04T03:11:30;24.20;58.50
30290;DHT22;17105;55.652;37.710;2022-07-04T03:12:06;24.20;58.40
30290;DHT22;17105;55.652;37.710;2022-07-04T03:12:39;24.20;58.20
30290;DHT22;17105;55.652;37.710;2022-07-04T03:13:13;24.30;58.20
30290;DHT22;17105;55.652;37.710;2022-07-04T03:13:49;24.30;58.20
30290;DHT22;17105;55.652;37.710;2022-07-04T03:14:24;24.30;58.40
30290;DHT22;17105;55.652;37.710;2022-07-04T03:14:59;24.30;58.40
30290;DHT22;17105;55.652;37.710;2022-07-04T03:15:32;24.30;58.20
30290;DHT22;17105;55.652;37.710;2022-07-04T03:16:07;24.30;58.10
30290;DHT22;17105;55.652;37.710;2022-07-04T03:16:43;24.30;57.90
30290;DHT22;17105;55.652;37.710;2022-07-04T03:17:17;24.40;58.30
30290;DHT22;17105;55.652;37.710;2022-07-04T03:17:51;24.40;58.10
30290;DHT22;17105;55.652;37.710;2022-07-04T03:18:26;24.40;58.00
30290;DHT22;17105;55.652;37.710;2022-07-04T03:19:03;24.40;57.60
30290;DHT22;17105;55.652;37.710;2022-07-04T03:19:36;24.40;58.00
30290;DHT22;17105;55.652;37.710;2022-07-04T03:20:12;24.40;58.10
30290;DHT22;17105;55.652;37.710;2022-07-04T03:20:47;24.50;58.20
30290;DHT22;17105;55.652;37.710;2022-07-04T03:21:20;24.50;58.10
30290;DHT22;17105;55.652;37.710;2022-07-04T03:21:57;24.60;58.20
30290;DHT22;17105;55.652;37.710;2022-07-04T03:22:31;24.60;58.20
30290;DHT22;17105;55.652;37.710;2022-07-04T03:23:05;24.60;58.20
30290;DHT22;17105;55.652;37.710;2022-07-04T03:23:40;24.60;58.20
30290;DHT22;17105;55.652;37.710;2022-07-04T03:24:14;24.60;58.30
30290;DHT22;17105;55.652;37.710;2022-07-04T03:24:49;24.60;58.20
30290;DHT22;17105;55.652;37.710;2022-07-04T03:25:25;24.60;58.20
30290;DHT22;17105;55.652;37.710;2022-07-04T03:25:59;24.60;58.00
30290;DHT22;17105;55.652;37.710;2022-07-04T03:26:33;24.70;57.80
30290;DHT22;17105;55.652;37.710;2022-07-04T03:27:08;24.70;57.70
30290;DHT22;17105;55.652;37.710;2022-07-04T03:27:42;24.70;57.70
30290;DHT22;17105;55.652;37.710;2022-07-04T03:28:16;24.70;57.70
30290;DHT22;17105;55.652;37.710;2022-07-04T03:28:50;24.70;57.70
30290;DHT22;17105;55.652;37.710;2022-07-04T03:29:23;24.80;57.70
30290;DHT22;17105;55.652;37.710;2022-07-04T03:29:58;24.80;57.60
30290;DHT22;17105;55.652;37.710;2022-07-04T03:30:32;24.80;57.60
30290;DHT22;17105;55.652;37.710;2022-07-04T03:31:07;24.80;57.60
30290;DHT22;17105;55.652;37.710;2022-07-04T03:31:42;24.90;57.40
30290;DHT22;17105;55.652;37.710;2022-07-04T03:32:17;24.90;57.40
30290;DHT22;17105;55.652;37.710;2022-07-04T03:32:51;24.90;57.50
30290;DHT22;17105;55.652;37.710;2022-07-04T03:33:26;24.90;57.70
30290;DHT22;17105;55.652;37.710;2022-07-04T03:33:59;24.90;57.90
30290;DHT22;17105;55.652;37.710;2022-07-04T03:34:33;24.90;58.00
30290;DHT22;17105;55.652;37.710;2022-07-04T03:35:10;24.90;58.10
30290;DHT22;17105;55.652;37.710;2022-07-04T03:35:44;24.90;58.10
30290;DHT22;17105;55.652;37.710;2022-07-04T03:36:19;25.00;58.10
30290;DHT22;17105;55.652;37.710;2022-07-04T03:36:53;25.00;57.70
30290;DHT22;17105;55.652;37.710;2022-07-04T03:37:29;25.00;57.40
30290;DHT22;17105;55.652;37.710;2022-07-04T03:38:04;25.00;57.40
30290;DHT22;17105;55.652;37.710;2022-07-04T03:38:39;25.00;57.40
30290;DHT22;17105;55.652;37.710;2022-07-04T03:39:13;25.00;57.30